Allison, TX (79003)

1:49 PM CST on December 09, 2016 (GMT -0600)
J&C 1020 Rd. | | Change Station

Elev 2293 ft 35.54 °N, 99.68 °W | Updated 15 seconds ago

Partly Cloudy
Partly Cloudy
31.8 °F
Feels Like 23 °F
N
11.4
Wind Variable Wind from North
Gusts 15.0 mph

Today
High -- | Low -- °F
--% Chance of Precip.
Yesterday
High -- | Low -- °F
Precip. -- in
Pressure 30.30 in
Visibility 10.0 miles
Clouds Clear
Windchill 23 °F
Dew Point -4 °F
Humidity 21%
Rainfall 0.00 in
Snow Depth Not available.
7:38 AM 5:27 PM
Waxing Gibbous, 76% visible
METAR KHHF 091935Z AUTO 17016G21KT 10SM CLR 03/M06 A3030 RMK AO2 T00311061
Pressure 30.30 in
Visibility 10.0 miles
Clouds Clear
Windchill 23 °F
Dew Point -4 °F
Humidity 21%
Rainfall 0.00 in
Snow Depth Not available.
7:38 AM 5:27 PM
Waxing Gibbous, 76% visible
METAR KHHF 091935Z AUTO 17016G21KT 10SM CLR 03/M06 A3030 RMK AO2 T00311061

10-Day Weather Forecast

Almanac

Astronomy

Dec. 09, 2016 Rise Set
Actual Time
Civil Twilight
Nautical Twilight
Astronomical Twilight
Moon
Length of Visible Light
Length of Day
Tomorrow will be .
, % of the Moon is Illuminated

Today's Extremes

State Highs State Lows

Community

WunderPhotos

Upload Photos

1,956,499 photos uploaded!

WunderBlog® & News

Nearby

Air Quality

  Air Quality AQ Index Pollutant
Not available.

Snow Depth

Station Depth Elevation

Earthquake Activity

City Distance Mag. Time & Date
Minimum magnitude displayed is 2.5.

Coastal Water Temperatures

Place Temperature

Stations

Nearby Weather Stations

Station Location Temp. Windchill Dew Point Humidity Wind Precip. Elev Updated Type
                   

Watches & Warnings

There are currently no watches in effect.